Terminal Aerodrome Forecast
Issued by NWS

Home | Current Version | Previous Version | Text Only | Print | Product List | Glossary On
Versions: 1 2 3 4 5 6 7 8 9 10 11 12 13 14 15 16 17 18 19 20 21 22 23 24 25 26 27 28 29 30 31 32 33 34 35 36 37 38
000
FTUS43 KGLD 280541
TAFMCK
TAF
KMCK 280541Z 2806/2906 13008KT P6SM SCT015 BKN030
     FM280630 28025G35KT 1SM +TSRA BKN015CB
      TEMPO 2807/2808 4SM -TSRA BKN035CB
     FM280800 VRB06KT 6SM BR VCTS SCT015 BKN040CB
     FM281000 03006KT 3SM BR OVC015
      TEMPO 2810/2814 1SM BR OVC008
     FM281600 35008KT P6SM BKN035
     FM282100 34008KT P6SM VCTS BKN040CB
     FM290200 VRB06KT P6SM BKN080=

USA.gov is the U.S. government's official web portal to all federal, state and local government web resources and services.